地図

経路データ

SID SEASON NUMBER BASIN SUBBASIN NAME ISO_TIME NATURE LAT LON WMO_WIND WMO_PRES WMO_AGENCY TRACK_TYPE DIST2LAND LANDFALL IFLAG USA_AGENCY USA_ATCF_ID USA_LAT USA_LON USA_RECORD USA_STATUS USA_WIND USA_PRES USA_SSHS USA_R34_NE USA_R34_SE USA_R34_SW USA_R34_NW USA_R50_NE USA_R50_SE USA_R50_SW USA_R50_NW USA_R64_NE USA_R64_SE USA_R64_SW USA_R64_NW USA_POCI USA_ROCI USA_RMW USA_EYE TOKYO_LAT TOKYO_LON TOKYO_GRADE TOKYO_WIND TOKYO_PRES TOKYO_R50_DIR TOKYO_R50_LONG TOKYO_R50_SHORT TOKYO_R30_DIR TOKYO_R30_LONG TOKYO_R30_SHORT TOKYO_LAND CMA_LAT CMA_LON CMA_CAT CMA_WIND CMA_PRES HKO_LAT HKO_LON HKO_CAT HKO_WIND HKO_PRES NEWDELHI_LAT NEWDELHI_LON NEWDELHI_GRADE NEWDELHI_WIND NEWDELHI_PRES NEWDELHI_CI NEWDELHI_DP NEWDELHI_POCI REUNION_LAT REUNION_LON REUNION_TYPE REUNION_WIND REUNION_PRES REUNION_TNUM REUNION_CI REUNION_RMW REUNION_R34_NE REUNION_R34_SE REUNION_R34_SW REUNION_R34_NW REUNION_R50_NE REUNION_R50_SE REUNION_R50_SW REUNION_R50_NW REUNION_R64_NE REUNION_R64_SE REUNION_R64_SW REUNION_R64_NW BOM_LAT BOM_LON BOM_TYPE BOM_WIND BOM_PRES BOM_TNUM BOM_CI BOM_RMW BOM_R34_NE BOM_R34_SE BOM_R34_SW BOM_R34_NW BOM_R50_NE BOM_R50_SE BOM_R50_SW BOM_R50_NW BOM_R64_NE BOM_R64_SE BOM_R64_SW BOM_R64_NW BOM_ROCI BOM_POCI BOM_EYE BOM_POS_METHOD BOM_PRES_METHOD NADI_LAT NADI_LON NADI_CAT NADI_WIND NADI_PRES WELLINGTON_LAT WELLINGTON_LON WELLINGTON_WIND WELLINGTON_PRES DS824_LAT DS824_LON DS824_STAGE DS824_WIND DS824_PRES TD9636_LAT TD9636_LON TD9636_STAGE TD9636_WIND TD9636_PRES TD9635_LAT TD9635_LON TD9635_WIND TD9635_PRES TD9635_ROCI NEUMANN_LAT NEUMANN_LON NEUMANN_CLASS NEUMANN_WIND NEUMANN_PRES MLC_LAT MLC_LON MLC_CLASS MLC_WIND MLC_PRES USA_GUST BOM_GUST BOM_GUST_PER REUNION_GUST REUNION_GUST_PER USA_SEAHGT USA_SEARAD_NE USA_SEARAD_SE USA_SEARAD_SW USA_SEARAD_NW STORM_SPEED STORM_DIR
1995250N09161 1995 61 WP MM OSCAR 1995-09-07 06:00:00 NR 8.50000 161.200 main 1670 1648 O_____________ jtwc_wp WP171995 8.50000 161.200 15 -1 13 288
1995250N09161 1995 61 WP MM OSCAR 1995-09-07 09:00:00 NR 8.69772 160.590 main 1648 1630 P_____________ WP171995 8.69772 160.590 15 -1 13 289
1995250N09161 1995 61 WP MM OSCAR 1995-09-07 12:00:00 NR 8.90000 160.000 main 1630 1615 O_____________ jtwc_wp WP171995 8.90000 160.000 15 -1 12 290
1995250N09161 1995 61 WP MM OSCAR 1995-09-07 15:00:00 NR 9.10738 159.442 main 1613 1604 P_____________ WP171995 9.10738 159.442 15 -1 12 290
1995250N09161 1995 61 WP MM OSCAR 1995-09-07 18:00:00 NR 9.30000 158.900 main 1604 1586 O_____________ jtwc_wp WP171995 9.30000 158.900 15 -1 11 288
1995250N09161 1995 61 WP MM OSCAR 1995-09-07 21:00:00 NR 9.44984 158.365 main 1586 1575 P_____________ WP171995 9.44984 158.365 15 -1 11 285
1995250N09161 1995 61 WP MM OSCAR 1995-09-08 00:00:00 NR 9.60000 157.800 main 1575 1560 O_____________ jtwc_wp WP171995 9.60000 157.800 15 -1 12 286
1995250N09161 1995 61 WP MM OSCAR 1995-09-08 03:00:00 NR 9.80000 157.158 main 1565 1551 P_____________ WP171995 9.80000 157.158 15 -1 13 287
1995250N09161 1995 61 WP MM OSCAR 1995-09-08 06:00:00 NR 10.0000 156.500 main 1552 1537 O_____________ jtwc_wp WP171995 10.0000 156.500 15 -1 13 286
1995250N09161 1995 61 WP MM OSCAR 1995-09-08 09:00:00 NR 10.1574 155.877 main 1548 1532 P_____________ WP171995 10.1574 155.877 17 -1 12 284
1995250N09161 1995 61 WP MM OSCAR 1995-09-08 12:00:00 NR 10.3000 155.300 main 1536 1529 O_____________ jtwc_wp WP171995 10.3000 155.300 20 -1 11 285
1995250N09161 1995 61 WP MM OSCAR 1995-09-08 15:00:00 NR 10.4574 154.770 main 1540 1531 P_____________ WP171995 10.4574 154.770 20 -1 10 287
1995250N09161 1995 61 WP MM OSCAR 1995-09-08 18:00:00 NR 10.6000 154.300 main 1537 1531 O_____________ jtwc_wp WP171995 10.6000 154.300 20 -1 9 286
1995250N09161 1995 61 WP MM OSCAR 1995-09-08 21:00:00 NR 10.7074 153.870 main 1537 1533 P_____________ WP171995 10.7074 153.870 20 -1 8 284
1995250N09161 1995 61 WP MM OSCAR 1995-09-09 00:00:00 NR 10.8000 153.500 main 1539 1535 O_____________ jtwc_wp WP171995 10.8000 153.500 20 -1 7 285
1995250N09161 1995 61 WP MM OSCAR 1995-09-09 03:00:00 NR 10.8925 153.170 main 1544 1541 P_____________ WP171995 10.8925 153.170 20 -1 6 289
1995250N09161 1995 61 WP MM OSCAR 1995-09-09 06:00:00 NR 11.0000 152.900 main 1550 1549 O_____________ jtwc_wp WP171995 11.0000 152.900 20 -1 5 298
1995250N09161 1995 61 WP MM OSCAR 1995-09-09 09:00:00 NR 11.1425 152.685 main 1559 1559 P_____________ WP171995 11.1425 152.685 20 -1 5 308
1995250N09161 1995 61 WP MM OSCAR 1995-09-09 12:00:00 NR 11.3000 152.500 main 1578 1577 O_____________ jtwc_wp WP171995 11.3000 152.500 20 -1 5 309
1995250N09161 1995 61 WP MM OSCAR 1995-09-09 15:00:00 NR 11.4500 152.300 main 1587 1587 P_____________ WP171995 11.4500 152.300 20 -1 5 308
1995250N09161 1995 61 WP MM OSCAR 1995-09-09 18:00:00 NR 11.6000 152.100 main 1607 1606 O_____________ jtwc_wp WP171995 11.6000 152.100 20 -1 5 307
1995250N09161 1995 61 WP MM OSCAR 1995-09-09 21:00:00 NR 11.7425 151.907 main 1617 1617 P_____________ WP171995 11.7425 151.907 20 -1 5 308
1995250N09161 1995 61 WP MM OSCAR 1995-09-10 00:00:00 NR 11.9000 151.700 main 1638 1635 O_____________ jtwc_wp WP171995 11.9000 151.700 20 -1 6 308
1995250N09161 1995 61 WP MM OSCAR 1995-09-10 03:00:00 NR 12.0850 151.465 main 1654 1651 P_____________ WP171995 12.0850 151.465 20 -1 6 309
1995250N09161 1995 61 WP MM OSCAR 1995-09-10 06:00:00 NR 12.3000 151.200 main 1667 1664 O_____________ jtwc_wp WP171995 12.3000 151.200 20 -1 7 310
1995250N09161 1995 61 WP MM OSCAR 1995-09-10 09:00:00 NR 12.5350 150.907 main 1680 1680 P_____________ WP171995 12.5350 150.907 20 -1 8 310
1995250N09161 1995 61 WP MM OSCAR 1995-09-10 12:00:00 NR 12.8000 150.600 main 1706 1704 O_____________ jtwc_wp WP171995 12.8000 150.600 20 -1 8 313
1995250N09161 1995 61 WP MM OSCAR 1995-09-10 15:00:00 NR 13.1000 150.293 main 1732 1732 P_____________ WP171995 13.1000 150.293 20 -1 8 316
1995250N09161 1995 61 WP MM OSCAR 1995-09-10 18:00:00 NR 13.4000 150.000 main 1760 1760 O_____________ jtwc_wp WP171995 13.4000 150.000 20 -1 8 317
1995250N09161 1995 61 WP MM OSCAR 1995-09-10 21:00:00 NR 13.6574 149.750 main 1788 1788 P_____________ WP171995 13.6574 149.750 20 -1 7 316
1995250N09161 1995 61 WP MM OSCAR 1995-09-11 00:00:00 NR 13.9000 149.500 main 1807 1807 O_____________ jtwc_wp WP171995 13.9000 149.500 20 -1 7 314
1995250N09161 1995 61 WP MM OSCAR 1995-09-11 03:00:00 NR 14.1500 149.215 main 1825 1825 P_____________ WP171995 14.1500 149.215 20 -1 8 311
1995250N09161 1995 61 WP MM OSCAR 1995-09-11 06:00:00 NR 14.4000 148.900 main 1855 1854 O_____________ jtwc_wp WP171995 14.4000 148.900 20 -1 8 308
1995250N09161 1995 61 WP MM OSCAR 1995-09-11 09:00:00 NR 14.6575 148.543 main 1885 1885 P_____________ WP171995 14.6575 148.543 22 -1 8 306
1995250N09161 1995 61 WP MM OSCAR 1995-09-11 12:00:00 NR 14.9000 148.200 main 1906 1906 O_____________ jtwc_wp WP171995 14.9000 148.200 25 -1 7 307
1995250N09161 1995 61 WP MM OSCAR 1995-09-11 15:00:00 NR 15.0999 147.935 main 1927 1927 P_____________ WP171995 15.0999 147.935 25 -1 5 304
1995250N09161 1995 61 WP MM OSCAR 1995-09-11 18:00:00 NR 15.1600 147.800 main 1938 1938 O__O__________ jtwc_wp WP171995 15.3000 147.700 25 -1 14.6000 148.200 TD 25 1004 4 308
1995250N09161 1995 61 WP MM OSCAR 1995-09-11 21:00:00 NR 15.3400 147.617 main 1949 1949 P__P__________ WP171995 15.5350 147.442 27 -1 14.9500 147.965 TD 25 1004 5 314
1995250N09161 1995 61 WP MM OSCAR 1995-09-12 00:00:00 TS 15.5000 147.433 1008 tokyo main 1971 1971 OOOO__________ jtwc_wp WP171995 15.8000 147.200 30 -1 15.2000 147.500 2 1008 0 0 0 15.2000 147.500 1 23 1008 15.3000 147.700 TD 25 1004 6 323
1995250N09161 1995 61 WP MM OSCAR 1995-09-12 03:00:00 TS 15.8292 147.229 main 2005 2005 PPPP__________ WP171995 16.1000 146.992 30 -1 15.7375 147.303 2 1006 0 0 15.7375 147.303 1 26 1006 15.6500 147.393 TD 27 1002 8 330
1995250N09161 1995 61 WP MM OSCAR 1995-09-12 06:00:00 TS 16.2000 147.014 1004 tokyo main 2049 2049 OOOO__________ jtwc_wp WP171995 16.4000 146.800 30 -1 16.2000 147.100 2 1004 0 0 0 16.2000 147.100 1 29 1004 16.0000 147.100 TD 30 1000 8 331
1995250N09161 1995 61 WP MM OSCAR 1995-09-12 09:00:00 TS 16.5206 146.823 main 2083 2083 PPPP__________ WP171995 16.6499 146.615 32 -1 16.5375 146.892 2 1002 0 0 16.5375 146.892 1 29 1004 16.3574 146.892 TD 30 1000 7 328
1995250N09161 1995 61 WP MM OSCAR 1995-09-12 12:00:00 TS 16.8000 146.625 1000 tokyo main 2117 2089 OOOO__________ jtwc_wp WP171995 16.9000 146.400 35 0 16.8000 146.700 2 1000 0 0 0 16.8000 146.700 1 29 1004 16.7000 146.700 TD 30 1000 7 325
1995250N09161 1995 61 WP MM OSCAR 1995-09-12 15:00:00 TS 17.0844 146.416 main 2089 2062 PPPP__________ WP171995 17.2000 146.123 37 0 17.0650 146.542 2 998 0 0 17.0650 146.542 1 31 1000 17.0075 146.457 TD 32 998 7 324
1995250N09161 1995 61 WP MM OSCAR 1995-09-12 18:00:00 TS 17.3500 146.200 35 996 tokyo main 2051 2024 OOOO__________ jtwc_wp WP171995 17.5000 145.800 40 0 17.3000 146.400 3 35 996 0 9 90 90 0 17.3000 146.400 2 34 996 17.3000 146.200 TS 35 996 6 321
1995250N09161 1995 61 WP MM OSCAR 1995-09-12 21:00:00 TS 17.5630 146.012 main 2024 1996 PPPP__________ WP171995 17.7500 145.457 42 0 17.4697 146.309 3 37 994 0 9 150 150 17.4472 146.309 2 36 996 17.5849 145.972 TS 37 994 6 318
1995250N09161 1995 61 WP MM OSCAR 1995-09-13 00:00:00 TS 17.8250 145.750 40 992 tokyo main 1996 1942 OOOO__________ jtwc_wp WP171995 18.0000 145.100 45 0 17.7000 146.100 3 40 992 0 9 210 210 0 17.7000 146.100 2 38 996 17.9000 145.700 TS 40 992 9 317
1995250N09161 1995 61 WP MM OSCAR 1995-09-13 03:00:00 TS 18.2531 145.344 main 1928 1874 PPPP__________ WP171995 18.2999 144.757 50 0 18.1200 145.633 3 42 988 0 9 255 180 18.2925 145.633 2 38 993 18.2998 145.352 TS 42 991 12 315
1995250N09161 1995 61 WP MM OSCAR 1995-09-13 06:00:00 TS 18.7000 144.825 45 985 tokyo main 1869 1816 OOOO__________ jtwc_wp WP171995 18.6000 144.400 55 0 18.6000 145.000 3 45 985 0 4 300 150 0 18.9000 145.000 2 38 990 18.7000 144.900 TS 45 990 13 307
1995250N09161 1995 61 WP MM OSCAR 1995-09-13 09:00:00 TS 19.0244 144.247 main 1811 1758 PPPP__________ WP171995 18.8498 144.030 60 0 19.0302 144.300 3 47 982 0 4 325 175 19.1950 144.322 2 43 987 19.0225 144.337 TS 47 987 13 298
1995250N09161 1995 61 WP MM OSCAR 1995-09-13 12:00:00 TS 19.3000 143.625 50 980 tokyo main 1754 1698 OOOO__________ jtwc_wp WP171995 19.1000 143.600 65 1 19.4000 143.600 4 50 980 0 4 350 200 0 19.4000 143.600 3 48 985 19.3000 143.700 STS 50 985 13 296
1995250N09161 1995 61 WP MM OSCAR 1995-09-13 15:00:00 TS 19.5804 143.014 main 1698 1653 PPPP__________ WP171995 19.3849 143.087 65 1 19.6720 143.042 4 55 977 0 4 362 210 19.7075 142.870 3 53 982 19.5573 143.057 STS 55 980 13 295
1995250N09161 1995 61 WP MM OSCAR 1995-09-13 18:00:00 TS 19.8500 142.400 60 975 tokyo main 1642 1599 OOOO__________ jtwc_wp WP171995 19.7000 142.500 65 1 19.9000 142.500 4 60 975 9 50 50 4 375 220 0 20.0000 142.200 3 58 980 19.8000 142.400 STS 60 975 13 295
1995250N09161 1995 61 WP MM OSCAR 1995-09-13 21:00:00 TS 20.1162 141.774 main 1599 1546 PPPP__________ WP171995 20.0501 141.850 70 1 20.1576 141.850 4 62 972 9 52 52 4 387 230 20.2146 141.670 3 63 975 20.0425 141.727 STS 62 972 13 295
1995250N09161 1995 61 WP MM OSCAR 1995-09-14 00:00:00 TS 20.3750 141.175 65 970 tokyo main 1546 1508 OOOO__________ jtwc_wp WP171995 20.4000 141.200 75 1 20.4000 141.200 5 65 970 9 55 55 4 400 240 0 20.4000 141.200 4 68 970 20.3000 141.100 T 65 970 12 295
1995250N09161 1995 61 WP MM OSCAR 1995-09-14 03:00:00 TS 20.6173 140.622 main 1505 1461 PPPP__________ WP171995 20.7148 140.620 82 1 20.5849 140.612 5 67 967 9 57 57 4 425 255 20.5774 140.692 4 68 970 20.5923 140.562 T 67 967 11 297
1995250N09161 1995 61 WP MM OSCAR 1995-09-14 06:00:00 TS 20.8750 140.125 70 965 tokyo main 1457 1415 OOOO__________ jtwc_wp WP171995 21.0000 140.100 90 2 20.8000 140.100 5 70 965 9 60 60 4 450 270 0 20.8000 140.200 4 68 970 20.9000 140.100 T 70 965 10 302
1995250N09161 1995 61 WP MM OSCAR 1995-09-14 09:00:00 TS 21.1667 139.674 main 1406 1355 PPPP__________ WP171995 21.2349 139.620 100 3 21.1273 139.670 5 72 960 9 65 65 4 475 297 21.1199 139.728 4 72 965 21.1848 139.677 T 75 960 10 308
1995250N09161 1995 61 WP MM OSCAR 1995-09-14 12:00:00 TS 21.5000 139.275 75 955 tokyo main 1355 1295 OOOO__________ jtwc_wp WP171995 21.5000 139.200 110 3 21.5000 139.300 5 75 955 9 70 70 4 500 325 0 21.5000 139.300 4 77 960 21.5000 139.300 T 80 955 10 315
1995250N09161 1995 61 WP MM OSCAR 1995-09-14 15:00:00 TS 21.8780 138.906 main 1295 1240 PPPP__________ WP171995 21.8774 138.827 112 3 21.8499 138.935 5 80 950 9 80 80 4 525 337 21.8999 138.927 4 82 955 21.8849 138.935 T 82 952 10 320
1995250N09161 1995 61 WP MM OSCAR 1995-09-14 18:00:00 TS 22.2750 138.575 85 945 tokyo main 1240 1196 OOOO__________ jtwc_wp WP171995 22.3000 138.500 115 4 22.2000 138.600 5 85 945 9 90 90 4 550 350 0 22.3000 138.600 5 87 950 22.3000 138.600 ST 85 950 10 322
1995250N09161 1995 61 WP MM OSCAR 1995-09-14 21:00:00 TS 22.6330 138.265 main 1196 1141 PPPP__________ WP171995 22.6849 138.185 120 4 22.5199 138.292 5 87 940 9 105 105 4 550 350 22.6349 138.292 5 92 945 22.6924 138.292 ST 87 947 9 324
1995250N09161 1995 61 WP MM OSCAR 1995-09-15 00:00:00 TS 23.0250 137.975 90 935 tokyo main 1141 1078 OOOO__________ jtwc_wp WP171995 23.1000 137.900 125 4 22.9000 138.000 5 90 935 9 120 120 4 550 350 0 23.0000 138.000 5 97 940 23.1000 138.000 ST 90 945 10 328
1995250N09161 1995 61 WP MM OSCAR 1995-09-15 03:00:00 TS 23.5137 137.674 main 1078 1014 PPPP__________ WP171995 23.5925 137.635 132 4 23.4350 137.685 5 92 932 9 125 125 4 575 375 23.4850 137.685 5 101 937 23.5425 137.692 ST 95 940 11 332
1995250N09161 1995 61 WP MM OSCAR 1995-09-15 06:00:00 TS 24.0250 137.400 95 930 tokyo main 1014 957 OOOO__________ jtwc_wp WP171995 24.1000 137.400 140 5 24.0000 137.400 5 95 930 9 130 130 4 600 400 0 24.0000 137.400 6 106 935 24.0000 137.400 SuperT 100 935 11 335
1995250N09161 1995 61 WP MM OSCAR 1995-09-15 09:00:00 TS 24.4768 137.170 main 957 909 PPPP__________ WP171995 24.5499 137.192 140 5 24.4649 137.177 5 95 927 9 145 145 4 625 400 24.4499 137.185 6 111 930 24.4425 137.127 SuperT 105 930 10 337
1995250N09161 1995 61 WP MM OSCAR 1995-09-15 12:00:00 TS 24.9250 136.975 95 925 tokyo main 909 852 OOOO__________ jtwc_wp WP171995 25.0000 137.000 140 5 24.9000 137.000 5 95 925 9 160 160 4 650 400 0 24.9000 137.000 6 116 925 24.9000 136.900 SuperT 110 925 10 339
1995250N09161 1995 61 WP MM OSCAR 1995-09-15 15:00:00 TS 25.3919 136.777 main 852 795 PPPP__________ WP171995 25.4850 136.778 140 5 25.3200 136.835 5 95 925 9 160 160 4 650 400 25.3775 136.778 6 116 925 25.3850 136.720 SuperT 112 922 10 342
1995250N09161 1995 61 WP MM OSCAR 1995-09-15 18:00:00 TS 25.9000 136.625 95 925 tokyo main 795 746 OOOO__________ jtwc_wp WP171995 26.0000 136.600 140 5 25.8000 136.700 5 95 925 9 160 160 4 650 400 0 25.9000 136.600 6 116 925 25.9000 136.600 SuperT 115 920 11 348
1995250N09161 1995 61 WP MM OSCAR 1995-09-15 21:00:00 TS 26.4720 136.528 main 737 696 PPPP__________ WP171995 26.5275 136.505 140 5 26.4330 136.573 5 97 925 9 160 160 4 650 400 26.4925 136.512 6 116 925 26.4350 136.520 SuperT 115 920 12 355
1995250N09161 1995 61 WP MM OSCAR 1995-09-16 00:00:00 TS 27.0750 136.500 100 925 tokyo main 688 650 OOOO__________ jtwc_wp WP171995 27.1000 136.500 140 5 27.1000 136.500 5 100 925 9 160 160 4 650 400 0 27.1000 136.500 6 116 925 27.0000 136.500 SuperT 115 920 12 0
1995250N09161 1995 61 WP MM OSCAR 1995-09-16 03:00:00 TS 27.6655 136.507 100 925 tokyo main 639 585 POPP__________ WP171995 27.7349 136.548 140 5 27.7000 136.500 5 100 925 9 160 160 4 650 400 0 27.6423 136.491 6 116 925 27.5849 136.491 SuperT 115 920 12 5
1995250N09161 1995 61 WP MM OSCAR 1995-09-16 06:00:00 TS 28.2500 136.625 100 925 tokyo main 574 512 OOOO__________ jtwc_wp WP171995 28.4000 136.700 140 5 28.2000 136.600 5 100 925 9 170 170 4 650 500 0 28.2000 136.600 6 116 925 28.2000 136.600 SuperT 115 920 13 16
1995250N09161 1995 61 WP MM OSCAR 1995-09-16 09:00:00 TS 28.8881 136.902 100 925 tokyo main 512 457 POPP__________ WP171995 29.0348 136.941 140 5 28.9000 136.900 5 100 925 9 170 170 4 650 500 0 28.7975 136.883 6 116 925 28.8200 136.883 SuperT 112 922 14 25
1995250N09161 1995 61 WP MM OSCAR 1995-09-16 12:00:00 TS 29.5500 137.325 100 925 tokyo main 447 393 OOOO__________ jtwc_wp WP171995 29.7000 137.300 140 5 29.5000 137.400 5 100 925 9 170 170 4 650 500 0 29.5000 137.300 6 116 925 29.5000 137.300 SuperT 110 925 16 28
1995250N09161 1995 61 WP MM OSCAR 1995-09-16 15:00:00 TS 30.3422 137.778 100 925 tokyo main 393 339 POPP__________ WP171995 30.3895 137.727 140 5 30.4000 137.900 5 100 925 9 170 170 4 650 500 0 30.3397 137.749 6 111 927 30.2395 137.735 SuperT 107 927 19 27
1995250N09161 1995 61 WP MM OSCAR 1995-09-16 18:00:00 TS 31.2250 138.300 95 930 tokyo main 339 278 OOOO__________ jtwc_wp WP171995 31.2000 138.300 140 5 31.3000 138.300 5 95 930 9 160 160 4 600 475 0 31.3000 138.300 6 106 930 31.1000 138.300 SuperT 105 930 21 28
1995250N09161 1995 61 WP MM OSCAR 1995-09-16 21:00:00 TS 32.1823 138.923 95 930 tokyo main 267 171 POPP__________ WP171995 32.1280 138.957 132 4 32.3000 138.900 5 95 930 9 160 160 4 600 475 0 32.2654 138.872 6 101 932 32.0357 138.964 SuperT 100 932 25 32
1995250N09161 1995 61 WP MM OSCAR 1995-09-17 00:00:00 TS 33.3250 139.825 95 930 tokyo main 171 86 OOOO__________ jtwc_wp WP171995 33.3000 139.900 125 4 33.4000 139.800 5 95 930 9 160 160 4 600 475 0 33.4000 139.700 5 97 935 33.2000 139.900 ST 95 935 31 36
1995250N09161 1995 61 WP MM OSCAR 1995-09-17 03:00:00 TS 34.6535 141.110 85 940 tokyo main 84 84 POPP__________ WP171995 34.7608 141.266 117 4 34.5000 141.000 5 85 940 3 140 110 3 475 450 0 34.7232 140.962 5 92 942 34.6302 141.211 ST 87 942 38 38
1995250N09161 1995 61 WP MM OSCAR 1995-09-17 06:00:00 TS 36.3267 142.667 85 945 tokyo main 170 169 OOOO__________ jtwc_wp WP171995 36.4000 142.900 110 3 36.3000 142.500 5 85 945 3 130 100 3 450 400 0 36.3000 142.500 5 87 950 36.3000 142.800 T 80 950 44 36
1995250N09161 1995 61 WP MM OSCAR 1995-09-17 09:00:00 TS 38.1931 144.254 80 950 tokyo main 234 230 POPP__________ WP171995 38.0765 144.522 105 3 38.3000 144.100 5 80 950 3 120 95 3 450 400 0 38.2398 144.015 5 82 955 38.1193 144.503 T 72 957 45 36
1995250N09161 1995 61 WP MM OSCAR 1995-09-17 12:00:00 TS 39.9692 145.992 75 960 tokyo main 315 286 OOOO__________ jtwc_wp WP171995 39.7000 146.300 100 3 40.1000 145.800 5 75 960 3 110 90 3 425 375 0 40.1000 145.800 4 77 960 40.0000 146.300 T 65 965 43 43
1995250N09161 1995 61 WP MM OSCAR 1995-09-17 15:00:00 TS 41.3595 148.095 70 965 tokyo main 292 292 POP___________ WP171995 41.1425 148.237 90 2 41.6000 148.100 5 70 965 9 90 90 3 425 375 0 41.3359 147.947 4 72 967 T 41 54
1995250N09161 1995 61 WP MM OSCAR 1995-09-17 18:00:00 ET 42.4000 150.400 976 tokyo main 346 319 OOO___________ jtwc_wp WP171995 42.4000 150.400 80 1 42.4000 150.400 6 976 0 0 0 42.4000 150.400 9 68 975 42 58
1995250N09161 1995 61 WP MM OSCAR 1995-09-17 21:00:00 ET 43.6269 152.931 main 334 333 PPP___________ WP171995 43.5362 152.766 72 1 43.6313 153.001 6 978 0 0 43.7132 153.026 9 63 977 46 59
1995250N09161 1995 61 WP MM OSCAR 1995-09-18 00:00:00 ET 44.7818 155.782 980 tokyo main 443 443 OOO___________ jtwc_wp WP171995 44.4000 155.400 65 1 45.0000 156.000 6 980 0 0 0 45.0000 156.000 9 58 980 47 65
1995250N09161 1995 61 WP MM OSCAR 1995-09-18 03:00:00 ET 45.6381 158.944 main 553 550 PPP___________ WP171995 44.9312 158.283 60 0 46.1178 159.395 6 978 0 0 46.0927 159.363 9 58 980 48 71
1995250N09161 1995 61 WP MM OSCAR 1995-09-18 06:00:00 ET 46.3250 162.363 976 tokyo main 645 645 OOO___________ jtwc_wp WP171995 45.2000 161.300 55 0 47.0000 163.000 6 976 0 0 0 47.0000 163.000 9 58 980 49 76
1995250N09161 1995 61 WP MM OSCAR 1995-09-18 09:00:00 ET 46.8280 165.831 main 780 780 PP____________ WP171995 45.3437 164.309 50 0 47.5701 166.593 6 974 0 0 9 50 77
1995250N09161 1995 61 WP MM OSCAR 1995-09-18 12:00:00 ET 47.4800 169.460 972 tokyo main 908 908 OO____________ jtwc_wp WP171995 45.4000 167.300 45 0 48.0000 170.000 6 972 0 0 0 53 71
1995250N09161 1995 61 WP MM OSCAR 1995-09-18 15:00:00 ET 48.5705 173.216 main 1016 1016 _P____________ WP171995 -1 48.5705 173.216 6 970 0 0 46 71
1995250N09161 1995 61 WP MM OSCAR 1995-09-18 18:00:00 ET 49.0000 176.000 968 tokyo main 1135 996 _O____________ -1 49.0000 176.000 6 968 0 0 0 33 81
1995250N09161 1995 61 WP MM OSCAR 1995-09-18 21:00:00 ET 49.0620 178.161 main 990 891 _P____________ -1 49.0620 178.161 6 966 0 0 26 90
1995250N09161 1995 61 EP CP OSCAR 1995-09-19 00:00:00 ET 49.0000 180.000 964 tokyo main 885 778 _O____________ -1 49.0000 180.000 6 964 0 0 0 25 92
1995250N09161 1995 61 EP CP OSCAR 1995-09-19 03:00:00 ET 48.9869 181.945 main 772 662 _P____________ -1 48.9869 -178.055 6 962 0 0 26 90
1995250N09161 1995 61 EP CP OSCAR 1995-09-19 06:00:00 ET 49.0000 184.000 main 656 _O____________ -1 49.0000 184.000 6 960 0 0 0 27 89

デジタル台風データ・検索

IBTrACS Databaseについて

本データベースは、米国NOAAが公開する1842年以降の世界の熱帯低気圧のベストトラックデータアーカイブInternational Best Track Archive for Climate Stewardship (IBTrACS)を、ウェブで閲覧しやすい形式に変換したものです。

最終更新日:2021-12-03